East Princeton, Massachusetts
Current Conditions -  °F | °C
As of 4:52 AM on Sunday 26 Oct 2014 (Local Time) from KFIT Reporting Station
Clear Clear  
Wind Chill: 50°   Ceiling: Unl
Heat Index: 50°   Visibility: 10mi
Dew Point: 42°   Wind: 5mph
Humidity: 74%   Direction: 150°SSE
Pressure: 29.46"   Gusts: NA
Location:  42.47°N, 71.84°W
Report Text: KFIT 260852Z AUTO 15004KT 10SM CLR 10/06 A2946 RMK AO2 SLP976 T01000056 55006
Loading
Personal Weather Stations






























Interactive Weather Map
Tropical Storm Tracking
New forecast layout! Learn more

10-Day Weather Forecast

Advertisements
Track Severe Weather on mobile